Time;durP1;ratioP1;P1;durP2;ratioP2;P2;SDS_P1;SDS_P2;PMS_P1;PMS_P2;Temp;Humidity;BMP_temperature;BMP_pressure;BME280_temperature;BME280_humidity;BME280_pressure;Samples;Min_cycle;Max_cycle;Signal;HPM_P1;HPM_P2
2023/08/19 00:00:06;;;;;;;;;;;;;;;;;;4939420;28;19938;-88
2023/08/19 00:02:31;;;;;;;;;;;;;;;;;;4939963;29;19938;-88
2023/08/19 00:04:58;;;;;;;;;;;;;;;;;;4956833;28;19922;-88
2023/08/19 00:07:24;;;;;;;;;;;;;;;;;;4938810;29;19910;-89
2023/08/19 00:09:50;;;;;;;;;;;;;;;;;;4932970;29;20039;-88
2023/08/19 00:12:16;;;;;;;;;;;;;;;;;;4939505;28;19969;-89
2023/08/19 00:14:45;;;;;;;;;;;;;;;;;;4954986;28;20053;-88
2023/08/19 00:17:11;;;;;;;;;;;;;;;;;;4940394;28;20009;-88
2023/08/19 00:19:44;;;;;;;;;;;;;;;;;;4949080;28;19914;-88
2023/08/19 00:22:10;;;;;;;;;;;;;;;;;;4961428;28;19932;-88
2023/08/19 00:24:39;;;;;;;;;;;;;;;;;;4958563;28;19997;-88
2023/08/19 00:27:05;;;;;;;;;;;;;;;;;;4968862;28;20286;-89
2023/08/19 00:29:31;;;;;;;;;;;;;;;;;;4975810;28;19937;-89
2023/08/19 00:31:57;;;;;;;;;;;;;;;;;;4953093;28;19925;-90
2023/08/19 00:34:23;;;;;;;;;;;;;;;;;;4958952;28;19910;-88
2023/08/19 00:36:49;;;;;;;;;;;;;;;;;;4956490;28;19926;-89
2023/08/19 00:39:18;;;;;;;;;;;;;;;;;;4956494;28;19910;-88
2023/08/19 00:41:45;;;;;;;;;;;;;;;;;;4955685;28;19957;-90
2023/08/19 00:44:11;;;;;;;;;;;;;;;;;;4970307;28;20382;-88
2023/08/19 00:46:37;;;;;;;;;;;;;;;;;;4974248;28;19925;-88
2023/08/19 00:49:03;;;;;;;;;;;;;;;;;;4972954;28;19939;-88
2023/08/19 00:51:28;;;;;;;;;;;;;;;;;;4953063;28;19921;-89
2023/08/19 00:53:54;;;;;;;;;;;;;;;;;;4954948;28;20343;-88
2023/08/19 00:56:20;;;;;;;;;;;;;;;;;;4954038;28;19914;-89
2023/08/19 00:58:46;;;;;;;;;;;;;;;;;;4961554;28;20112;-89
2023/08/19 01:01:12;;;;;;;;;;;;;;;;;;4972929;28;19910;-88
2023/08/19 01:03:38;;;;;;;;;;;;;;;;;;4973264;28;19918;-88
2023/08/19 01:06:06;;;;;;;;;;;;;;;;;;4972210;28;19910;-88
2023/08/19 01:08:32;;;;;;;;;;;;;;;;;;4955423;28;20468;-89
2023/08/19 01:10:58;;;;;;;;;;;;;;;;;;4953866;28;19969;-89
2023/08/19 01:13:24;;;;;;;;;;;;;;;;;;4954956;28;19920;-89
2023/08/19 01:15:51;;;;;;;;;;;;;;;;;;4951563;28;19941;-88
2023/08/19 01:18:17;;;;;;;;;;;;;;;;;;4968402;28;19910;-91
2023/08/19 01:20:43;;;;;;;;;;;;;;;;;;4955129;28;19988;-89
2023/08/19 01:23:09;;;;;;;;;;;;;;;;;;4973322;28;20349;-89
2023/08/19 01:25:35;;;;;;;;;;;;;;;;;;4972121;28;20286;-88
2023/08/19 01:28:01;;;;;;;;;;;;;;;;;;4969898;28;19910;-88
2023/08/19 01:30:29;;;;;;;;;;;;;;;;;;4973616;28;20022;-89
2023/08/19 01:32:55;;;;;;;;;;;;;;;;;;4953388;28;20265;-88
2023/08/19 01:35:21;;;;;;;;;;;;;;;;;;4959126;28;19910;-89
2023/08/19 01:37:47;;;;;;;;;;;;;;;;;;4960356;28;20005;-88
2023/08/19 01:40:13;;;;;;;;;;;;;;;;;;4956457;28;19918;-88
2023/08/19 01:42:39;;;;;;;;;;;;;;;;;;4971573;28;20012;-87
2023/08/19 01:45:05;;;;;;;;;;;;;;;;;;4969226;28;19910;-87
2023/08/19 01:47:34;;;;;;;;;;;;;;;;;;4972197;28;20049;-88
2023/08/19 01:50:00;;;;;;;;;;;;;;;;;;4960596;28;20420;-89
2023/08/19 01:52:29;;;;;;;;;;;;;;;;;;4957785;28;19918;-88
2023/08/19 01:54:55;;;;;;;;;;;;;;;;;;4957026;28;19933;-88
2023/08/19 01:57:21;;;;;;;;;;;;;;;;;;4958672;28;19910;-92
2023/08/19 01:59:51;;;;;;;;;;;;;;;;;;4961415;28;19913;-92
2023/08/19 02:02:17;;;;;;;;;;;;;;;;;;4957989;28;19924;-92
2023/08/19 02:04:42;;;;;;;;;;;;;;;;;;4976425;28;19910;-91
2023/08/19 02:07:08;;;;;;;;;;;;;;;;;;4964739;28;19921;-91
2023/08/19 02:09:34;;;;;;;;;;;;;;;;;;4958274;28;19914;-93
2023/08/19 02:12:00;;;;;;;;;;;;;;;;;;4972209;28;19940;-92
2023/08/19 02:14:26;;;;;;;;;;;;;;;;;;4958938;28;19914;-91
2023/08/19 02:16:52;;;;;;;;;;;;;;;;;;4958483;28;19925;-91
2023/08/19 02:19:18;;;;;;;;;;;;;;;;;;4977781;28;19910;-92
2023/08/19 02:21:45;;;;;;;;;;;;;;;;;;4952064;28;19922;-92
2023/08/19 02:24:11;;;;;;;;;;;;;;;;;;4957522;28;19916;-92
2023/08/19 02:26:37;;;;;;;;;;;;;;;;;;4966207;28;19981;-91
2023/08/19 02:29:03;;;;;;;;;;;;;;;;;;4974649;28;19918;-91
2023/08/19 02:31:29;;;;;;;;;;;;;;;;;;4957783;28;19936;-92
2023/08/19 02:33:55;;;;;;;;;;;;;;;;;;4975159;28;20013;-92
2023/08/19 02:36:20;;;;;;;;;;;;;;;;;;4973176;28;19973;-90
2023/08/19 02:38:47;;;;;;;;;;;;;;;;;;4962692;28;19913;-92
2023/08/19 02:41:13;;;;;;;;;;;;;;;;;;4975645;28;20479;-92
2023/08/19 02:43:39;;;;;;;;;;;;;;;;;;4962843;28;20401;-92
2023/08/19 02:46:08;;;;;;;;;;;;;;;;;;4959524;28;19940;-90
2023/08/19 02:48:34;;;;;;;;;;;;;;;;;;4959268;28;19917;-92
2023/08/19 02:51:00;;;;;;;;;;;;;;;;;;4974056;28;19918;-92
2023/08/19 02:53:29;;;;;;;;;;;;;;;;;;4964372;28;20167;-93
2023/08/19 02:55:55;;;;;;;;;;;;;;;;;;4955822;28;19910;-93
2023/08/19 02:58:21;;;;;;;;;;;;;;;;;;4971951;28;20010;-92
2023/08/19 03:00:53;;;;;;;;;;;;;;;;;;4955241;28;19969;-92
2023/08/19 03:03:19;;;;;;;;;;;;;;;;;;4958664;28;19918;-93
2023/08/19 03:05:45;;;;;;;;;;;;;;;;;;4960242;28;19957;-90
2023/08/19 03:08:11;;;;;;;;;;;;;;;;;;4958460;28;19917;-90
2023/08/19 03:10:37;;;;;;;;;;;;;;;;;;4973510;28;19941;-90
2023/08/19 03:13:03;;;;;;;;;;;;;;;;;;4951173;28;19937;-90
2023/08/19 03:15:29;;;;;;;;;;;;;;;;;;4971905;28;19954;-90
2023/08/19 03:17:55;;;;;;;;;;;;;;;;;;4953506;28;20302;-90
2023/08/19 03:20:21;;;;;;;;;;;;;;;;;;4953036;28;19922;-90
2023/08/19 03:22:47;;;;;;;;;;;;;;;;;;4954218;28;19916;-90
2023/08/19 03:25:13;;;;;;;;;;;;;;;;;;4956254;28;19914;-90
2023/08/19 03:27:39;;;;;;;;;;;;;;;;;;4953470;28;20072;-90
2023/08/19 03:30:05;;;;;;;;;;;;;;;;;;4955266;28;19922;-89
2023/08/19 03:32:31;;;;;;;;;;;;;;;;;;4956578;28;20322;-90
2023/08/19 03:34:57;;;;;;;;;;;;;;;;;;4960906;28;19925;-90
2023/08/19 03:37:23;;;;;;;;;;;;;;;;;;4957232;28;20294;-90
2023/08/19 03:39:49;;;;;;;;;;;;;;;;;;4973312;28;20433;-90
2023/08/19 03:42:18;;;;;;;;;;;;;;;;;;4952528;28;19914;-90
2023/08/19 03:44:44;;;;;;;;;;;;;;;;;;4959224;28;20380;-89
2023/08/19 03:47:10;;;;;;;;;;;;;;;;;;4976098;28;19910;-90
2023/08/19 03:49:39;;;;;;;;;;;;;;;;;;4972631;28;19913;-89
2023/08/19 03:52:05;;;;;;;;;;;;;;;;;;4954444;28;19914;-90
2023/08/19 03:54:31;;;;;;;;;;;;;;;;;;4973506;28;19913;-89
2023/08/19 03:56:57;;;;;;;;;;;;;;;;;;4953498;28;19924;-90
2023/08/19 03:59:23;;;;;;;;;;;;;;;;;;4958418;28;19910;-90
2023/08/19 04:01:49;;;;;;;;;;;;;;;;;;4961232;28;20357;-90
2023/08/19 04:04:15;;;;;;;;;;;;;;;;;;4955122;28;19973;-90
2023/08/19 04:06:42;;;;;;;;;;;;;;;;;;4972977;28;19917;-90
2023/08/19 04:09:07;;;;;;;;;;;;;;;;;;4971347;28;19949;-90
2023/08/19 04:11:37;;;;;;;;;;;;;;;;;;4956437;28;20107;-91
2023/08/19 04:14:03;;;;;;;;;;;;;;;;;;4971699;28;20611;-90
2023/08/19 04:16:29;;;;;;;;;;;;;;;;;;4957388;28;19968;-89
2023/08/19 04:18:54;;;;;;;;;;;;;;;;;;4953575;28;19918;-88
2023/08/19 04:21:21;;;;;;;;;;;;;;;;;;4942096;28;19918;-89
2023/08/19 04:23:47;;;;;;;;;;;;;;;;;;4932375;28;19917;-89
2023/08/19 04:26:13;;;;;;;;;;;;;;;;;;4954982;28;20400;-88
2023/08/19 04:28:39;;;;;;;;;;;;;;;;;;4935386;29;19950;-88
2023/08/19 04:31:05;;;;;;;;;;;;;;;;;;4931495;29;19922;-88
2023/08/19 04:33:31;;;;;;;;;;;;;;;;;;4944207;28;19916;-88
2023/08/19 04:36:00;;;;;;;;;;;;;;;;;;4940114;28;19917;-88
2023/08/19 04:38:26;;;;;;;;;;;;;;;;;;4951919;28;19925;-88
2023/08/19 04:40:52;;;;;;;;;;;;;;;;;;4938197;29;19914;-88
2023/08/19 04:43:18;;;;;;;;;;;;;;;;;;4942422;28;19918;-88
2023/08/19 04:45:44;;;;;;;;;;;;;;;;;;4935893;29;19955;-88
2023/08/19 04:48:10;;;;;;;;;;;;;;;;;;4935544;28;19910;-90
2023/08/19 04:50:36;;;;;;;;;;;;;;;;;;4936372;29;19969;-87
2023/08/19 04:53:02;;;;;;;;;;;;;;;;;;4934047;28;19914;-89
2023/08/19 04:55:28;;;;;;;;;;;;;;;;;;4951846;28;20008;-88
2023/08/19 04:57:54;;;;;;;;;;;;;;;;;;4934283;29;20401;-88
2023/08/19 05:00:20;;;;;;;;;;;;;;;;;;4932926;29;19910;-88
2023/08/19 05:02:46;;;;;;;;;;;;;;;;;;4933139;29;20282;-88
2023/08/19 05:05:12;;;;;;;;;;;;;;;;;;4952610;28;19914;-90
2023/08/19 05:07:38;;;;;;;;;;;;;;;;;;4948926;28;20004;-89
2023/08/19 05:10:04;;;;;;;;;;;;;;;;;;4938665;29;19921;-89
2023/08/19 05:12:33;;;;;;;;;;;;;;;;;;4935327;29;20228;-88
2023/08/19 05:14:59;;;;;;;;;;;;;;;;;;4933673;28;19966;-88
2023/08/19 05:17:25;;;;;;;;;;;;;;;;;;4936905;28;19910;-88
2023/08/19 05:19:51;;;;;;;;;;;;;;;;;;4934527;28;19999;-89
2023/08/19 05:22:17;;;;;;;;;;;;;;;;;;4969112;28;19918;-90
2023/08/19 05:24:43;;;;;;;;;;;;;;;;;;4960002;28;19916;-89
2023/08/19 05:27:09;;;;;;;;;;;;;;;;;;4957339;28;19997;-90
2023/08/19 05:29:35;;;;;;;;;;;;;;;;;;4972277;28;20078;-88
2023/08/19 05:32:01;;;;;;;;;;;;;;;;;;4956669;28;19957;-88
2023/08/19 05:34:30;;;;;;;;;;;;;;;;;;4975998;28;19961;-87
2023/08/19 05:36:56;;;;;;;;;;;;;;;;;;4955658;28;19910;-88
2023/08/19 05:39:22;;;;;;;;;;;;;;;;;;4971390;28;20310;-88
2023/08/19 05:41:56;;;;;;;;;;;;;;;;;;4957193;28;20345;-88
2023/08/19 05:44:22;;;;;;;;;;;;;;;;;;4959432;28;19914;-89
2023/08/19 05:46:48;;;;;;;;;;;;;;;;;;4955514;28;19964;-88
2023/08/19 05:49:14;;;;;;;;;;;;;;;;;;4961884;28;20481;-89
2023/08/19 05:51:40;;;;;;;;;;;;;;;;;;4956484;28;20020;-88
2023/08/19 05:54:05;;;;;;;;;;;;;;;;;;4957623;28;19929;-88
2023/08/19 05:56:31;;;;;;;;;;;;;;;;;;4959165;28;19932;-88
2023/08/19 05:58:57;;;;;;;;;;;;;;;;;;4956383;28;20005;-88
2023/08/19 06:01:24;;;;;;;;;;;;;;;;;;4955819;28;19917;-88
2023/08/19 06:03:51;;;;;;;;;;;;;;;;;;4952358;28;20045;-88
2023/08/19 06:06:17;;;;;;;;;;;;;;;;;;4959233;28;20016;-88
2023/08/19 06:08:43;;;;;;;;;;;;;;;;;;4975365;28;21511;-90
2023/08/19 06:11:12;;;;;;;;;;;;;;;;;;4959139;28;19924;-87
2023/08/19 06:13:38;;;;;;;;;;;;;;;;;;4955265;28;19913;-88
2023/08/19 06:16:04;;;;;;;;;;;;;;;;;;4956349;28;20026;-91
2023/08/19 06:18:30;;;;;;;;;;;;;;;;;;4951496;28;20163;-88
2023/08/19 06:20:57;;;;;;;;;;;;;;;;;;4962270;28;19922;-88
2023/08/19 06:23:23;;;;;;;;;;;;;;;;;;4960339;28;19910;-89
2023/08/19 06:25:49;;;;;;;;;;;;;;;;;;4956492;28;19992;-89
2023/08/19 06:28:15;;;;;;;;;;;;;;;;;;4972844;28;19922;-89
2023/08/19 06:30:41;;;;;;;;;;;;;;;;;;4960842;28;19973;-88
2023/08/19 06:33:07;;;;;;;;;;;;;;;;;;4958048;28;20005;-88
2023/08/19 06:35:33;;;;;;;;;;;;;;;;;;4977171;28;19964;-88
2023/08/19 06:38:00;;;;;;;;;;;;;;;;;;4974231;28;19914;-89
2023/08/19 06:40:25;;;;;;;;;;;;;;;;;;4955672;28;19914;-89
2023/08/19 06:42:52;;;;;;;;;;;;;;;;;;4952172;28;19925;-89
2023/08/19 06:45:18;;;;;;;;;;;;;;;;;;4960693;28;19924;-88
2023/08/19 06:47:45;;;;;;;;;;;;;;;;;;4960631;28;19910;-89
2023/08/19 06:50:12;;;;;;;;;;;;;;;;;;4959164;28;19921;-88
2023/08/19 06:52:38;;;;;;;;;;;;;;;;;;4959129;28;19917;-90
2023/08/19 06:55:04;;;;;;;;;;;;;;;;;;4974830;28;19937;-88
2023/08/19 06:57:30;;;;;;;;;;;;;;;;;;4954688;28;20310;-89
2023/08/19 06:59:55;;;;;;;;;;;;;;;;;;4958706;28;19910;-90
2023/08/19 07:02:21;;;;;;;;;;;;;;;;;;4955826;28;19917;-90
2023/08/19 07:04:48;;;;;;;;;;;;;;;;;;4959695;28;20285;-89
2023/08/19 07:07:14;;;;;;;;;;;;;;;;;;4968532;28;19981;-88
2023/08/19 07:09:40;;;;;;;;;;;;;;;;;;4960360;28;20385;-88
2023/08/19 07:12:06;;;;;;;;;;;;;;;;;;4958556;28;20006;-89
2023/08/19 07:14:32;;;;;;;;;;;;;;;;;;4959667;28;19914;-90
2023/08/19 07:16:58;;;;;;;;;;;;;;;;;;4961883;28;19914;-90
2023/08/19 07:19:28;;;;;;;;;;;;;;;;;;4960782;28;20032;-91
2023/08/19 07:21:55;;;;;;;;;;;;;;;;;;4961912;28;19918;-92
2023/08/19 07:24:21;;;;;;;;;;;;;;;;;;4967181;28;19921;-89
2023/08/19 07:26:46;;;;;;;;;;;;;;;;;;4962018;28;19910;-91
2023/08/19 07:29:15;;;;;;;;;;;;;;;;;;4976142;28;19921;-90
2023/08/19 07:31:42;;;;;;;;;;;;;;;;;;4959995;28;19972;-90
2023/08/19 07:34:07;;;;;;;;;;;;;;;;;;4960002;28;20535;-90
2023/08/19 07:36:33;;;;;;;;;;;;;;;;;;4975381;28;19914;-90
2023/08/19 07:39:00;;;;;;;;;;;;;;;;;;4963012;28;19910;-90
2023/08/19 07:41:25;;;;;;;;;;;;;;;;;;4975030;28;19914;-90
2023/08/19 07:43:52;;;;;;;;;;;;;;;;;;4961280;28;19973;-91
2023/08/19 07:46:18;;;;;;;;;;;;;;;;;;4959840;28;19910;-94
2023/08/19 07:48:44;;;;;;;;;;;;;;;;;;4962074;28;19910;-94
2023/08/19 07:51:10;;;;;;;;;;;;;;;;;;4958771;28;21442;-93
2023/08/19 07:53:36;;;;;;;;;;;;;;;;;;4975840;28;19910;-95
2023/08/19 07:56:02;;;;;;;;;;;;;;;;;;4961265;28;20239;-95
2023/08/19 07:58:28;;;;;;;;;;;;;;;;;;4958149;28;20199;-93
2023/08/19 08:00:54;;;;;;;;;;;;;;;;;;4975385;28;19945;-93
2023/08/19 08:03:20;;;;;;;;;;;;;;;;;;4959393;28;20420;-93
2023/08/19 08:05:46;;;;;;;;;;;;;;;;;;4967373;28;19998;-92
2023/08/19 08:08:11;;;;;;;;;;;;;;;;;;4957286;28;20024;-94
2023/08/19 08:10:39;;;;;;;;;;;;;;;;;;4957777;28;19961;-92
2023/08/19 08:13:05;;;;;;;;;;;;;;;;;;4968463;28;20376;-93
2023/08/19 08:15:31;;;;;;;;;;;;;;;;;;4961140;28;19977;-93
2023/08/19 08:18:01;;;;;;;;;;;;;;;;;;4980835;28;19968;-92
2023/08/19 08:20:27;;;;;;;;;;;;;;;;;;4979738;28;19918;-93
2023/08/19 08:22:53;;;;;;;;;;;;;;;;;;4967189;28;19925;-93
2023/08/19 08:25:19;;;;;;;;;;;;;;;;;;4965037;28;19910;-93
2023/08/19 08:27:45;;;;;;;;;;;;;;;;;;4959174;28;19914;-93
2023/08/19 08:30:11;;;;;;;;;;;;;;;;;;4966249;28;20251;-94
2023/08/19 08:32:47;;;;;;;;;;;;;;;;;;4965156;28;19914;-93
2023/08/19 08:35:13;;;;;;;;;;;;;;;;;;4980538;28;20013;-93
2023/08/19 08:37:39;;;;;;;;;;;;;;;;;;4980753;28;19945;-92
2023/08/19 08:40:05;;;;;;;;;;;;;;;;;;4964801;28;19910;-92
2023/08/19 08:42:31;;;;;;;;;;;;;;;;;;4977521;28;19914;-95
2023/08/19 08:44:57;;;;;;;;;;;;;;;;;;4963400;28;20459;-94
2023/08/19 08:47:23;;;;;;;;;;;;;;;;;;4963968;28;19910;-95
2023/08/19 08:49:50;;;;;;;;;;;;;;;;;;4980161;28;19913;-94
2023/08/19 08:52:15;;;;;;;;;;;;;;;;;;4964598;28;19949;-94
2023/08/19 08:54:45;;;;;;;;;;;;;;;;;;4956730;28;19910;-92
2023/08/19 08:57:12;;;;;;;;;;;;;;;;;;4954785;28;19925;-91
2023/08/19 08:59:38;;;;;;;;;;;;;;;;;;4956141;28;19942;-91
2023/08/19 09:02:04;;;;;;;;;;;;;;;;;;4960646;28;19921;-91
2023/08/19 09:04:30;;;;;;;;;;;;;;;;;;4973580;28;19945;-89
2023/08/19 09:09:46;;;;;;;;;;;;;;;;;;4976022;28;19929;-90
2023/08/19 09:12:13;;;;;;;;;;;;;;;;;;4963976;28;20449;-91
2023/08/19 09:14:45;;;;;;;;;;;;;;;;;;4964904;28;20388;-92
2023/08/19 09:17:12;;;;;;;;;;;;;;;;;;4955229;28;19914;-91
2023/08/19 09:19:38;;;;;;;;;;;;;;;;;;4974671;28;19945;-92
2023/08/19 09:22:04;;;;;;;;;;;;;;;;;;4955587;28;19933;-91
2023/08/19 09:24:30;;;;;;;;;;;;;;;;;;4959619;28;19925;-92
2023/08/19 09:26:56;;;;;;;;;;;;;;;;;;4975831;28;19910;-91
2023/08/19 09:32:08;;;;;;;;;;;;;;;;;;4963350;28;19953;-91
2023/08/19 09:34:44;;;;;;;;;;;;;;;;;;4973687;28;19921;-91
2023/08/19 09:37:11;;;;;;;;;;;;;;;;;;4974523;28;19928;-89
2023/08/19 09:39:37;;;;;;;;;;;;;;;;;;4958936;28;19977;-90
2023/08/19 09:42:03;;;;;;;;;;;;;;;;;;4971426;28;19918;-90
2023/08/19 09:44:29;;;;;;;;;;;;;;;;;;4958339;28;19989;-91
2023/08/19 09:46:56;;;;;;;;;;;;;;;;;;4968387;28;19910;-89
2023/08/19 09:49:22;;;;;;;;;;;;;;;;;;4973063;28;19914;-90
2023/08/19 09:51:48;;;;;;;;;;;;;;;;;;4953660;28;19921;-90
2023/08/19 09:54:16;;;;;;;;;;;;;;;;;;4956573;28;20017;-90
2023/08/19 09:56:42;;;;;;;;;;;;;;;;;;4969987;28;20326;-90
2023/08/19 09:59:11;;;;;;;;;;;;;;;;;;4958614;28;19937;-89
2023/08/19 10:01:37;;;;;;;;;;;;;;;;;;4955299;28;19914;-90
2023/08/19 10:04:03;;;;;;;;;;;;;;;;;;4972028;28;19914;-90
2023/08/19 10:06:31;;;;;;;;;;;;;;;;;;4979606;28;19922;-90
2023/08/19 10:08:57;;;;;;;;;;;;;;;;;;4975169;28;19921;-91
2023/08/19 10:11:23;;;;;;;;;;;;;;;;;;4958587;28;19914;-90
2023/08/19 10:13:48;;;;;;;;;;;;;;;;;;4973906;28;19914;-90
2023/08/19 10:16:14;;;;;;;;;;;;;;;;;;4962756;28;20441;-90
2023/08/19 10:18:40;;;;;;;;;;;;;;;;;;4958858;28;20328;-90
2023/08/19 10:21:07;;;;;;;;;;;;;;;;;;4963711;28;19910;-90
2023/08/19 10:23:33;;;;;;;;;;;;;;;;;;4955498;28;20352;-90
2023/08/19 10:25:59;;;;;;;;;;;;;;;;;;4957916;28;20349;-90
2023/08/19 10:28:25;;;;;;;;;;;;;;;;;;4961540;28;20182;-90
2023/08/19 10:30:51;;;;;;;;;;;;;;;;;;4962202;28;19914;-90
2023/08/19 10:33:17;;;;;;;;;;;;;;;;;;4975944;28;20823;-90
2023/08/19 10:35:43;;;;;;;;;;;;;;;;;;4964856;28;19913;-90
2023/08/19 10:38:09;;;;;;;;;;;;;;;;;;4962735;28;19914;-90
2023/08/19 10:40:35;;;;;;;;;;;;;;;;;;4965527;28;19917;-90
2023/08/19 10:43:01;;;;;;;;;;;;;;;;;;4958857;28;19918;-90
2023/08/19 10:45:26;;;;;;;;;;;;;;;;;;4967371;28;19929;-92
2023/08/19 10:47:52;;;;;;;;;;;;;;;;;;4980022;28;20004;-91
2023/08/19 10:50:18;;;;;;;;;;;;;;;;;;4957845;28;19922;-90
2023/08/19 10:52:44;;;;;;;;;;;;;;;;;;4962061;28;19940;-91
2023/08/19 10:55:10;;;;;;;;;;;;;;;;;;4960150;28;19914;-91
2023/08/19 10:57:38;;;;;;;;;;;;;;;;;;4957441;28;19918;-91
2023/08/19 11:00:07;;;;;;;;;;;;;;;;;;4958337;28;20394;-91
2023/08/19 11:02:33;;;;;;;;;;;;;;;;;;4962694;28;19917;-92
2023/08/19 11:05:05;;;;;;;;;;;;;;;;;;4961346;28;19910;-91
2023/08/19 11:07:33;;;;;;;;;;;;;;;;;;4956705;28;19914;-92
2023/08/19 11:09:59;;;;;;;;;;;;;;;;;;4963887;28;19954;-92
2023/08/19 11:12:29;;;;;;;;;;;;;;;;;;4974292;28;19917;-92
2023/08/19 11:14:55;;;;;;;;;;;;;;;;;;4959717;28;20374;-91
2023/08/19 11:17:24;;;;;;;;;;;;;;;;;;4974782;28;19910;-91
2023/08/19 11:19:50;;;;;;;;;;;;;;;;;;4966409;28;20370;-91
2023/08/19 11:22:16;;;;;;;;;;;;;;;;;;4953174;28;19957;-90
2023/08/19 11:24:42;;;;;;;;;;;;;;;;;;4949567;28;19926;-90
2023/08/19 11:27:17;;;;;;;;;;;;;;;;;;4955177;28;19939;-90
2023/08/19 11:29:43;;;;;;;;;;;;;;;;;;4941125;29;20508;-90
2023/08/19 11:32:09;;;;;;;;;;;;;;;;;;4936489;29;19921;-91
2023/08/19 11:34:35;;;;;;;;;;;;;;;;;;4957883;28;19915;-89
2023/08/19 11:37:01;;;;;;;;;;;;;;;;;;4942442;29;19918;-89
2023/08/19 11:39:27;;;;;;;;;;;;;;;;;;4939523;29;19914;-90
2023/08/19 11:41:52;;;;;;;;;;;;;;;;;;4938263;29;19922;-90
2023/08/19 11:44:25;;;;;;;;;;;;;;;;;;4946994;28;19910;-89
2023/08/19 11:46:51;;;;;;;;;;;;;;;;;;4937887;29;20429;-88
2023/08/19 11:49:17;;;;;;;;;;;;;;;;;;4938538;28;19911;-90
2023/08/19 11:51:43;;;;;;;;;;;;;;;;;;4938093;29;20017;-89
2023/08/19 11:54:09;;;;;;;;;;;;;;;;;;4941293;28;19941;-89
2023/08/19 11:56:38;;;;;;;;;;;;;;;;;;4955031;28;20012;-89
2023/08/19 11:59:04;;;;;;;;;;;;;;;;;;4938809;28;20009;-90
2023/08/19 12:01:30;;;;;;;;;;;;;;;;;;4939153;29;20248;-88
2023/08/19 12:03:56;;;;;;;;;;;;;;;;;;4953609;28;20374;-88
2023/08/19 12:06:22;;;;;;;;;;;;;;;;;;4937118;28;20234;-90
2023/08/19 12:08:48;;;;;;;;;;;;;;;;;;4939406;28;19919;-89
2023/08/19 12:11:15;;;;;;;;;;;;;;;;;;4938924;28;19910;-90
2023/08/19 12:13:41;;;;;;;;;;;;;;;;;;4952733;28;19918;-88
2023/08/19 12:16:07;;;;;;;;;;;;;;;;;;4933076;29;19918;-89
2023/08/19 12:18:32;;;;;;;;;;;;;;;;;;4945958;28;19910;-90
2023/08/19 12:20:58;;;;;;;;;;;;;;;;;;4935686;28;20267;-89
2023/08/19 12:23:24;;;;;;;;;;;;;;;;;;4938761;28;19910;-90
2023/08/19 12:25:53;;;;;;;;;;;;;;;;;;4959789;28;19921;-94
2023/08/19 12:28:20;;;;;;;;;;;;;;;;;;4959018;28;19969;-94
2023/08/19 12:30:45;;;;;;;;;;;;;;;;;;4959742;28;20499;-93
2023/08/19 12:33:11;;;;;;;;;;;;;;;;;;4976935;28;19914;-92
2023/08/19 12:35:37;;;;;;;;;;;;;;;;;;4974777;28;19925;-92
2023/08/19 12:38:03;;;;;;;;;;;;;;;;;;4958236;28;19910;-92
2023/08/19 12:40:29;;;;;;;;;;;;;;;;;;4970662;28;20005;-91
2023/08/19 12:42:55;;;;;;;;;;;;;;;;;;4960258;28;19945;-92
2023/08/19 12:45:22;;;;;;;;;;;;;;;;;;4973362;28;20322;-93
2023/08/19 12:47:47;;;;;;;;;;;;;;;;;;4950317;28;19911;-91
2023/08/19 12:50:15;;;;;;;;;;;;;;;;;;4972570;28;19925;-92
2023/08/19 12:52:42;;;;;;;;;;;;;;;;;;4957988;28;20481;-91
2023/08/19 12:55:09;;;;;;;;;;;;;;;;;;4956164;28;20036;-93
2023/08/19 12:57:42;;;;;;;;;;;;;;;;;;4961897;28;19913;-93
2023/08/19 13:00:08;;;;;;;;;;;;;;;;;;4975055;28;19913;-92
2023/08/19 13:02:34;;;;;;;;;;;;;;;;;;4960225;28;20459;-93
2023/08/19 13:05:00;;;;;;;;;;;;;;;;;;4961248;28;19918;-92
2023/08/19 13:07:26;;;;;;;;;;;;;;;;;;4976488;28;19978;-93
2023/08/19 13:09:52;;;;;;;;;;;;;;;;;;4965033;28;19953;-92
2023/08/19 13:12:18;;;;;;;;;;;;;;;;;;4977583;28;19921;-92
2023/08/19 13:14:44;;;;;;;;;;;;;;;;;;4964425;28;19933;-92
2023/08/19 13:17:10;;;;;;;;;;;;;;;;;;4953561;28;19918;-92
2023/08/19 13:19:36;;;;;;;;;;;;;;;;;;4972667;28;19918;-93
2023/08/19 13:22:03;;;;;;;;;;;;;;;;;;4959420;28;19918;-91
2023/08/19 13:24:29;;;;;;;;;;;;;;;;;;4952943;28;19954;-92
2023/08/19 13:26:55;;;;;;;;;;;;;;;;;;4955211;28;19910;-92
2023/08/19 13:29:34;;;;;;;;;;;;;;;;;;4937814;29;19911;-91
2023/08/19 13:32:00;;;;;;;;;;;;;;;;;;4938559;28;20366;-93
2023/08/19 13:34:26;;;;;;;;;;;;;;;;;;4942366;28;19914;-93
2023/08/19 13:36:52;;;;;;;;;;;;;;;;;;4945026;28;19920;-88
2023/08/19 13:39:17;;;;;;;;;;;;;;;;;;4956594;28;19964;-88
2023/08/19 13:41:43;;;;;;;;;;;;;;;;;;4941347;28;19953;-90
2023/08/19 13:44:10;;;;;;;;;;;;;;;;;;4953197;28;20390;-89
2023/08/19 13:46:35;;;;;;;;;;;;;;;;;;4953657;28;19914;-89
2023/08/19 13:49:02;;;;;;;;;;;;;;;;;;4940956;28;19918;-89
2023/08/19 13:51:28;;;;;;;;;;;;;;;;;;4933642;28;20049;-89
2023/08/19 13:53:54;;;;;;;;;;;;;;;;;;4945409;28;20009;-90
2023/08/19 13:56:20;;;;;;;;;;;;;;;;;;4940114;28;19961;-88
2023/08/19 13:58:49;;;;;;;;;;;;;;;;;;4939138;28;20267;-89
2023/08/19 14:01:15;;;;;;;;;;;;;;;;;;4939601;28;19924;-90
2023/08/19 14:03:41;;;;;;;;;;;;;;;;;;4956672;28;19918;-91
2023/08/19 14:06:11;;;;;;;;;;;;;;;;;;4941454;28;19972;-89
2023/08/19 14:08:43;;;;;;;;;;;;;;;;;;4939421;28;19920;-89
2023/08/19 14:11:12;;;;;;;;;;;;;;;;;;4956931;28;19934;-90
2023/08/19 14:13:38;;;;;;;;;;;;;;;;;;4935589;28;19910;-90
2023/08/19 14:16:04;;;;;;;;;;;;;;;;;;4943736;29;19977;-89
2023/08/19 14:18:30;;;;;;;;;;;;;;;;;;4940850;28;19926;-89
2023/08/19 14:20:56;;;;;;;;;;;;;;;;;;4936723;28;19918;-89
2023/08/19 14:23:22;;;;;;;;;;;;;;;;;;4940312;28;19910;-88
2023/08/19 14:25:48;;;;;;;;;;;;;;;;;;4958245;28;19922;-90
2023/08/19 14:28:14;;;;;;;;;;;;;;;;;;4961440;28;19918;-89
2023/08/19 14:30:41;;;;;;;;;;;;;;;;;;4976931;28;20060;-90
2023/08/19 14:33:07;;;;;;;;;;;;;;;;;;4956638;28;19910;-89
2023/08/19 14:35:33;;;;;;;;;;;;;;;;;;4954540;28;19917;-89
2023/08/19 14:37:59;;;;;;;;;;;;;;;;;;4957143;28;20316;-90
2023/08/19 14:40:25;;;;;;;;;;;;;;;;;;4976168;28;19921;-89
2023/08/19 14:42:54;;;;;;;;;;;;;;;;;;4960574;28;19914;-91
2023/08/19 14:45:19;;;;;;;;;;;;;;;;;;4962345;28;19917;-91
2023/08/19 14:47:45;;;;;;;;;;;;;;;;;;4964096;28;19949;-93
2023/08/19 14:50:11;;;;;;;;;;;;;;;;;;4960217;28;20417;-93
2023/08/19 14:52:37;;;;;;;;;;;;;;;;;;4974381;28;19925;-92
2023/08/19 14:55:04;;;;;;;;;;;;;;;;;;4959339;28;19910;-93
2023/08/19 14:57:29;;;;;;;;;;;;;;;;;;4960700;28;20359;-92
2023/08/19 14:59:55;;;;;;;;;;;;;;;;;;4963202;28;19910;-94
2023/08/19 15:02:24;;;;;;;;;;;;;;;;;;4961383;28;19918;-92
2023/08/19 15:04:49;;;;;;;;;;;;;;;;;;4956916;28;19910;-93
2023/08/19 15:07:15;;;;;;;;;;;;;;;;;;4960478;28;19920;-93
2023/08/19 15:09:41;;;;;;;;;;;;;;;;;;4962897;28;19918;-93
2023/08/19 15:12:07;;;;;;;;;;;;;;;;;;4957488;28;19918;-92
2023/08/19 15:14:33;;;;;;;;;;;;;;;;;;4956628;28;19920;-93
2023/08/19 15:16:59;;;;;;;;;;;;;;;;;;4965799;28;19968;-93
2023/08/19 15:19:25;;;;;;;;;;;;;;;;;;4960316;28;20263;-93
2023/08/19 15:21:51;;;;;;;;;;;;;;;;;;4961200;28;19913;-91
2023/08/19 15:24:17;;;;;;;;;;;;;;;;;;4959701;28;19953;-91
2023/08/19 15:26:44;;;;;;;;;;;;;;;;;;4961232;28;19913;-93
2023/08/19 15:29:09;;;;;;;;;;;;;;;;;;4972601;28;20385;-93
2023/08/19 15:31:36;;;;;;;;;;;;;;;;;;4977176;28;19918;-94
2023/08/19 15:34:03;;;;;;;;;;;;;;;;;;4961179;28;20202;-94
2023/08/19 15:36:29;;;;;;;;;;;;;;;;;;4970877;28;19910;-92
2023/08/19 15:38:55;;;;;;;;;;;;;;;;;;4957290;28;20360;-94
2023/08/19 15:41:21;;;;;;;;;;;;;;;;;;4965507;28;19971;-93
2023/08/19 15:43:47;;;;;;;;;;;;;;;;;;4959531;28;19910;-92
2023/08/19 15:46:13;;;;;;;;;;;;;;;;;;4974096;28;19961;-92
2023/08/19 15:48:39;;;;;;;;;;;;;;;;;;4971013;28;20536;-93
2023/08/19 15:51:05;;;;;;;;;;;;;;;;;;4972998;28;19952;-94
2023/08/19 15:53:34;;;;;;;;;;;;;;;;;;4960136;28;20009;-94
2023/08/19 15:56:00;;;;;;;;;;;;;;;;;;4963828;28;19937;-89
2023/08/19 15:58:26;;;;;;;;;;;;;;;;;;4965282;28;19918;-88
2023/08/19 16:00:52;;;;;;;;;;;;;;;;;;4958664;28;19970;-89
2023/08/19 16:03:18;;;;;;;;;;;;;;;;;;4952229;28;19956;-89
2023/08/19 16:05:44;;;;;;;;;;;;;;;;;;4970275;28;19965;-90
2023/08/19 16:08:10;;;;;;;;;;;;;;;;;;4958064;28;19914;-89
2023/08/19 16:10:36;;;;;;;;;;;;;;;;;;4960066;28;20346;-89
2023/08/19 16:13:02;;;;;;;;;;;;;;;;;;4958884;28;20379;-90
2023/08/19 16:15:28;;;;;;;;;;;;;;;;;;4970703;28;19933;-89
2023/08/19 16:17:54;;;;;;;;;;;;;;;;;;4973764;28;19917;-88
2023/08/19 16:20:20;;;;;;;;;;;;;;;;;;4968251;28;20434;-89
2023/08/19 16:22:46;;;;;;;;;;;;;;;;;;4957203;28;19921;-88
2023/08/19 16:25:12;;;;;;;;;;;;;;;;;;4951158;28;19963;-89
2023/08/19 16:27:38;;;;;;;;;;;;;;;;;;4937702;29;19950;-89
2023/08/19 16:30:04;;;;;;;;;;;;;;;;;;4938915;28;20466;-90
2023/08/19 16:32:31;;;;;;;;;;;;;;;;;;4933434;29;19917;-88
2023/08/19 16:34:57;;;;;;;;;;;;;;;;;;4937609;28;19911;-89
2023/08/19 16:37:23;;;;;;;;;;;;;;;;;;4939959;29;19914;-89
2023/08/19 16:39:49;;;;;;;;;;;;;;;;;;4938822;28;19910;-89
2023/08/19 16:42:15;;;;;;;;;;;;;;;;;;4935903;29;19918;-89
2023/08/19 16:44:42;;;;;;;;;;;;;;;;;;4953643;28;20025;-89